createdAt,value
2023-02-11T00:01:18.866Z,30.65
2023-02-11T00:03:47.585Z,32.49
2023-02-11T00:06:15.182Z,31.30
2023-02-11T00:08:42.681Z,29.64
2023-02-11T00:11:11.647Z,32.17
2023-02-11T00:13:38.865Z,30.03
2023-02-11T00:16:06.593Z,29.08
2023-02-11T00:18:33.177Z,30.12
2023-02-11T00:21:00.805Z,30.13
2023-02-11T00:23:29.397Z,30.45
2023-02-11T00:25:55.969Z,30.54
2023-02-11T00:28:24.979Z,30.42
2023-02-11T00:30:52.286Z,29.90
2023-02-11T00:33:20.816Z,30.37
2023-02-11T00:35:48.823Z,30.95
2023-02-11T00:38:17.156Z,31.89
2023-02-11T00:40:46.045Z,31.06
2023-02-11T00:43:14.768Z,30.87
2023-02-11T00:45:41.942Z,30.23
2023-02-11T00:48:11.024Z,31.50
2023-02-11T00:50:39.169Z,31.58
2023-02-11T00:53:06.775Z,33.68
2023-02-11T00:55:35.400Z,32.34
2023-02-11T00:58:04.607Z,31.66
2023-02-11T01:00:31.545Z,29.53
2023-02-11T01:02:59.198Z,28.57
2023-02-11T01:05:27.977Z,28.57
2023-02-11T01:07:55.490Z,28.15
2023-02-11T01:10:24.126Z,27.62
2023-02-11T01:12:52.727Z,28.16
2023-02-11T01:15:21.313Z,27.82
2023-02-11T01:17:48.909Z,27.28
2023-02-11T01:20:16.728Z,27.94
2023-02-11T01:22:44.132Z,28.00
2023-02-11T01:25:12.898Z,27.85
2023-02-11T01:27:42.030Z,26.63
2023-02-11T01:30:08.914Z,26.24
2023-02-11T01:32:38.041Z,24.93
2023-02-11T01:35:05.134Z,23.80
2023-02-11T01:37:32.721Z,21.27
2023-02-11T01:40:00.301Z,19.82
2023-02-11T01:42:28.902Z,19.15
2023-02-11T01:44:56.501Z,19.96
2023-02-11T01:47:25.112Z,20.24
2023-02-11T01:49:52.694Z,171.93
2023-02-11T01:52:20.309Z,126.72
2023-02-11T01:54:47.957Z,49.53
2023-02-11T01:57:31.588Z,29.49
2023-02-11T02:00:00.827Z,23.43
2023-02-11T02:02:28.806Z,23.18
2023-02-11T02:04:57.747Z,23.73
2023-02-11T02:07:24.986Z,23.39
2023-02-11T02:09:52.588Z,23.39
2023-02-11T02:12:21.201Z,24.41
2023-02-11T02:14:48.892Z,69.31
2023-02-11T02:17:16.390Z,69.84
2023-02-11T02:19:42.996Z,39.09
2023-02-11T02:22:11.759Z,27.11
2023-02-11T02:24:40.198Z,27.84
2023-02-11T02:27:09.460Z,26.88
2023-02-11T02:29:36.438Z,26.58
2023-02-11T02:32:04.032Z,28.49
2023-02-11T02:34:33.644Z,29.16
2023-02-11T02:37:02.248Z,29.00
2023-02-11T02:39:29.953Z,28.97
2023-02-11T02:41:57.440Z,28.90
2023-02-11T02:44:26.044Z,29.54
2023-02-11T02:46:54.637Z,29.63
2023-02-11T02:49:23.240Z,29.64
2023-02-11T02:51:52.449Z,29.80
2023-02-11T02:54:19.429Z,30.92
2023-02-11T02:56:48.312Z,32.66
2023-02-11T02:59:16.640Z,33.80
2023-02-11T03:01:45.600Z,33.20
2023-02-11T03:04:13.841Z,34.76
2023-02-11T03:06:42.439Z,36.49
2023-02-11T03:09:11.666Z,33.15
2023-02-11T03:11:39.686Z,33.89
2023-02-11T03:14:08.615Z,35.32
2023-02-11T03:16:36.965Z,34.30
2023-02-11T03:19:05.445Z,34.48
2023-02-11T03:21:32.090Z,35.41
2023-02-11T03:24:00.661Z,35.32
2023-02-11T03:26:29.262Z,33.87
2023-02-11T03:28:57.856Z,34.57
2023-02-11T03:31:25.536Z,33.00
2023-02-11T03:33:54.065Z,32.74
2023-02-11T03:36:22.684Z,32.13
2023-02-11T03:38:51.859Z,32.08
2023-02-11T03:41:20.845Z,31.63
2023-02-11T03:43:48.505Z,31.95
2023-02-11T03:46:16.118Z,31.02
2023-02-11T03:48:44.969Z,29.37
2023-02-11T03:51:13.327Z,28.53
2023-02-11T03:53:40.886Z,30.63
2023-02-11T03:56:08.464Z,32.11
2023-02-11T03:58:36.086Z,32.45
2023-02-11T04:01:04.800Z,33.52
2023-02-11T04:03:32.441Z,34.45
2023-02-11T04:05:59.982Z,35.15
2023-02-11T04:08:27.608Z,35.20
2023-02-11T04:10:56.255Z,36.89
2023-02-11T04:13:24.817Z,35.87
2023-02-11T04:15:53.719Z,35.21
2023-02-11T04:18:22.078Z,34.01
2023-02-11T04:20:49.663Z,33.34
2023-02-11T04:23:18.294Z,34.48
2023-02-11T04:25:46.909Z,33.78
2023-02-11T04:28:15.595Z,33.13
2023-02-11T04:30:44.271Z,32.31
2023-02-11T04:33:11.777Z,31.62
2023-02-11T04:35:40.407Z,31.87
2023-02-11T04:38:08.018Z,33.00
2023-02-11T04:40:35.578Z,34.43
2023-02-11T04:43:03.174Z,33.59
2023-02-11T04:45:31.873Z,33.78
2023-02-11T04:48:00.519Z,34.04
2023-02-11T04:50:28.265Z,32.70
2023-02-11T04:52:57.078Z,34.00
2023-02-11T04:55:25.310Z,33.97
2023-02-11T04:57:53.908Z,34.73
2023-02-11T05:00:21.503Z,34.24
2023-02-11T05:02:50.097Z,34.27
2023-02-11T05:05:19.048Z,34.70
2023-02-11T05:07:47.352Z,36.07
2023-02-11T05:10:14.965Z,36.52
2023-02-11T05:12:43.543Z,34.66
2023-02-11T05:15:12.213Z,34.85
2023-02-11T05:17:41.438Z,35.84
2023-02-11T05:20:09.532Z,35.92
2023-02-11T05:22:38.132Z,36.18
2023-02-11T05:25:07.002Z,37.15
2023-02-11T05:27:35.325Z,38.32
2023-02-11T05:30:04.245Z,37.67
2023-02-11T05:32:31.510Z,39.19
2023-02-11T05:34:59.108Z,39.35
2023-02-11T05:37:26.807Z,37.58
2023-02-11T05:39:54.302Z,38.69
2023-02-11T05:42:22.898Z,38.95
2023-02-11T05:44:52.085Z,40.31
2023-02-11T05:47:20.159Z,38.35
2023-02-11T05:49:49.154Z,40.08
2023-02-11T05:52:17.411Z,50.80
2023-02-11T05:54:46.020Z,52.27
2023-02-11T05:57:14.977Z,46.37
2023-02-11T05:59:43.238Z,40.75
2023-02-11T06:02:11.857Z,39.96
2023-02-11T06:04:39.556Z,38.85
2023-02-11T06:07:08.171Z,40.01
2023-02-11T06:09:35.779Z,40.50
2023-02-11T06:12:04.871Z,40.69
2023-02-11T06:14:31.971Z,41.04
2023-02-11T06:17:00.751Z,39.51
2023-02-11T06:19:28.329Z,39.20
2023-02-11T06:21:56.969Z,39.89
2023-02-11T06:24:51.101Z,38.66
2023-02-11T06:27:13.261Z,38.95
2023-02-11T06:29:41.845Z,40.11
2023-02-11T06:32:28.161Z,39.45
2023-02-11T06:34:59.893Z,39.55
2023-02-11T06:37:28.825Z,38.06
2023-02-11T06:39:57.839Z,38.20
2023-02-11T06:42:24.996Z,39.16
2023-02-11T06:44:52.615Z,38.20
2023-02-11T06:47:21.868Z,38.90
2023-02-11T06:49:49.835Z,37.91
2023-02-11T06:52:19.037Z,38.70
2023-02-11T06:54:47.026Z,41.07
2023-02-11T06:57:14.661Z,41.23
2023-02-11T06:59:43.237Z,41.48
2023-02-11T07:02:11.937Z,41.35
2023-02-11T07:04:40.851Z,40.88
2023-02-11T07:07:09.084Z,40.42
2023-02-11T07:09:37.671Z,41.31
2023-02-11T07:12:05.243Z,42.16
2023-02-11T07:14:34.947Z,39.92
2023-02-11T07:17:03.937Z,38.12
2023-02-11T07:19:33.092Z,37.83
2023-02-11T07:22:01.848Z,35.43
2023-02-11T07:24:29.431Z,35.43
2023-02-11T07:26:57.023Z,40.06
2023-02-11T07:29:24.625Z,43.09
2023-02-11T07:31:53.427Z,37.37
2023-02-11T07:34:21.896Z,36.83
2023-02-11T07:36:49.419Z,35.60
2023-02-11T07:39:18.075Z,36.59
2023-02-11T07:41:46.656Z,36.80
2023-02-11T07:44:14.213Z,35.74
2023-02-11T07:46:41.093Z,36.68
2023-02-11T07:49:10.248Z,38.12
2023-02-11T07:51:38.239Z,36.57
2023-02-11T07:54:07.159Z,60.07
2023-02-11T07:56:35.494Z,48.07
2023-02-11T07:59:04.118Z,37.33
2023-02-11T08:01:31.708Z,34.37
2023-02-11T08:04:00.731Z,34.23
2023-02-11T08:06:28.955Z,35.62
2023-02-11T08:08:58.162Z,40.76
2023-02-11T08:11:25.218Z,43.96
2023-02-11T08:13:53.825Z,44.32
2023-02-11T08:16:21.457Z,44.46
2023-02-11T08:18:48.995Z,43.72
2023-02-11T08:21:17.600Z,43.58
2023-02-11T08:23:46.176Z,43.45
2023-02-11T08:26:15.031Z,42.50
2023-02-11T08:28:43.434Z,41.33
2023-02-11T08:31:11.237Z,41.31
2023-02-11T08:33:40.348Z,41.44
2023-02-11T08:36:09.237Z,40.52
2023-02-11T08:38:36.848Z,40.32
2023-02-11T08:41:04.686Z,40.91
2023-02-11T08:43:32.276Z,40.01
2023-02-11T08:46:02.383Z,40.40
2023-02-11T08:48:30.528Z,37.52
2023-02-11T08:50:58.401Z,37.87
2023-02-11T08:53:25.901Z,36.97
2023-02-11T08:55:53.621Z,36.51
2023-02-11T08:58:21.161Z,37.12
2023-02-11T09:00:49.191Z,37.73
2023-02-11T09:03:18.282Z,36.45
2023-02-11T09:05:47.080Z,34.94
2023-02-11T09:08:13.812Z,33.52
2023-02-11T09:10:40.330Z,32.71
2023-02-11T09:13:08.042Z,31.97
2023-02-11T09:15:35.644Z,31.81
2023-02-11T09:18:02.374Z,31.42
2023-02-11T09:20:29.379Z,33.46
2023-02-11T09:22:56.867Z,34.11
2023-02-11T09:25:25.506Z,34.62
2023-02-11T09:27:53.064Z,34.94
2023-02-11T09:30:22.131Z,34.87
2023-02-11T09:32:50.310Z,35.39
2023-02-11T09:35:20.964Z,36.55
2023-02-11T09:37:49.563Z,35.98
2023-02-11T09:43:02.363Z,35.92
2023-02-11T09:45:33.141Z,33.72
2023-02-11T09:48:03.333Z,36.47
2023-02-11T09:50:31.960Z,36.16
2023-02-11T09:52:59.732Z,36.51
2023-02-11T09:55:27.169Z,37.66
2023-02-11T09:57:56.066Z,36.60
2023-02-11T10:00:24.436Z,36.76
2023-02-11T10:02:52.983Z,36.22
2023-02-11T10:25:06.620Z,37.65
2023-02-11T10:27:33.202Z,38.57
2023-02-11T10:30:00.793Z,38.52
2023-02-11T10:32:27.249Z,39.67
2023-02-11T10:34:53.662Z,38.98
2023-02-11T10:37:20.083Z,40.85
2023-02-11T10:39:47.200Z,40.36
2023-02-11T10:42:13.757Z,38.45
2023-02-11T10:44:40.606Z,40.79
2023-02-11T10:47:07.138Z,40.00
2023-02-11T10:49:33.603Z,40.41
2023-02-11T10:52:01.153Z,38.77
2023-02-11T10:54:27.726Z,38.78
2023-02-11T10:56:56.329Z,39.29
2023-02-11T10:59:23.949Z,40.14
2023-02-11T11:01:51.586Z,40.23
2023-02-11T11:04:19.144Z,40.07
2023-02-11T11:06:45.746Z,40.88
2023-02-11T11:09:12.181Z,38.90
2023-02-11T11:11:38.922Z,40.31
2023-02-11T11:14:05.548Z,39.62
2023-02-11T11:16:32.151Z,39.89
2023-02-11T11:18:58.600Z,39.15
2023-02-11T11:21:25.030Z,38.92
2023-02-11T11:23:51.448Z,39.77
2023-02-11T11:26:18.525Z,38.52
2023-02-11T11:28:45.029Z,38.78
2023-02-11T11:31:11.832Z,38.65
2023-02-11T11:33:39.350Z,40.67
2023-02-11T11:36:06.902Z,39.39
2023-02-11T11:38:33.341Z,40.02
2023-02-11T11:41:00.156Z,40.28
2023-02-11T11:43:26.620Z,40.07
2023-02-11T11:45:53.333Z,40.07
2023-02-11T11:48:19.926Z,38.77
2023-02-11T11:50:46.518Z,40.64
2023-02-11T11:53:12.939Z,39.94
2023-02-11T11:55:39.693Z,40.27
2023-02-11T11:58:06.196Z,40.07
2023-02-11T12:00:33.903Z,40.39
2023-02-11T12:03:01.530Z,39.39
2023-02-11T12:05:29.093Z,40.25
2023-02-11T12:07:55.811Z,40.87
2023-02-11T12:10:22.234Z,39.06
2023-02-11T12:12:48.643Z,37.64
2023-02-11T12:15:15.092Z,38.25
2023-02-11T12:17:41.485Z,39.46
2023-02-11T12:20:08.650Z,39.33
2023-02-11T12:22:35.069Z,39.03
2023-02-11T12:25:01.858Z,38.83
2023-02-11T12:27:29.444Z,39.16
2023-02-11T12:29:57.069Z,39.48
2023-02-11T12:32:23.480Z,39.06
2023-02-11T12:34:50.262Z,39.07
2023-02-11T12:37:17.834Z,38.47
2023-02-11T12:39:44.470Z,38.78
2023-02-11T12:42:10.900Z,38.89
2023-02-11T12:44:37.676Z,40.23
2023-02-11T12:47:04.283Z,39.87
2023-02-11T12:49:30.872Z,41.78
2023-02-11T12:51:57.722Z,40.42
2023-02-11T12:54:25.070Z,39.31
2023-02-11T12:56:51.649Z,39.28
2023-02-11T12:59:18.234Z,38.85
2023-02-11T13:01:44.910Z,35.76
2023-02-11T13:04:12.418Z,35.25
2023-02-11T13:06:38.820Z,33.64
2023-02-11T13:09:05.248Z,32.01
2023-02-11T13:11:32.194Z,30.99
2023-02-11T13:13:58.874Z,31.38
2023-02-11T13:16:26.524Z,30.63
2023-02-11T13:18:53.275Z,31.84
2023-02-11T13:21:19.901Z,31.04
2023-02-11T13:23:46.309Z,30.04
2023-02-11T13:26:12.732Z,30.75
2023-02-11T13:28:39.843Z,28.90
2023-02-11T13:31:07.667Z,28.52
2023-02-11T13:33:35.044Z,28.60
2023-02-11T13:36:04.365Z,28.01
2023-02-11T13:38:32.234Z,29.50
2023-02-11T13:40:58.672Z,29.74
2023-02-11T13:43:25.107Z,29.07
2023-02-11T13:45:51.558Z,27.51
2023-02-11T13:48:18.194Z,28.47
2023-02-11T13:50:44.641Z,29.64
2023-02-11T13:53:11.076Z,29.60
2023-02-11T13:55:37.481Z,28.36
2023-02-11T13:58:03.873Z,29.02
2023-02-11T14:00:30.324Z,29.03
2023-02-11T14:02:57.527Z,31.30
2023-02-11T14:05:24.229Z,31.17
2023-02-11T14:07:51.751Z,30.34
2023-02-11T14:10:18.386Z,32.06
2023-02-11T14:12:45.058Z,31.59
2023-02-11T14:15:12.594Z,31.46
2023-02-11T14:17:39.002Z,31.04
2023-02-11T14:20:05.447Z,30.92
2023-02-11T14:22:31.903Z,31.59
2023-02-11T14:24:58.989Z,33.49
2023-02-11T14:27:25.679Z,36.01
2023-02-11T14:29:52.309Z,33.59
2023-02-11T14:32:18.762Z,33.97
2023-02-11T14:34:45.518Z,34.08
2023-02-11T14:37:11.947Z,32.81
2023-02-11T14:39:38.755Z,31.32
2023-02-11T14:42:06.336Z,31.96
2023-02-11T14:44:32.944Z,33.04
2023-02-11T14:46:59.545Z,33.36
2023-02-11T14:49:27.219Z,32.80
2023-02-11T14:51:53.715Z,33.42
2023-02-11T14:54:20.403Z,33.47
2023-02-11T14:56:47.071Z,33.16
2023-02-11T14:59:15.612Z,32.20
2023-02-11T15:01:42.232Z,30.91
2023-02-11T15:04:09.797Z,32.00
2023-02-11T15:06:36.201Z,33.17
2023-02-11T15:09:02.626Z,31.17
2023-02-11T15:11:29.023Z,33.40
2023-02-11T15:13:57.121Z,31.35
2023-02-11T15:16:23.793Z,32.67
2023-02-11T15:18:50.410Z,31.59
2023-02-11T15:21:16.847Z,31.95
2023-02-11T15:23:43.673Z,31.45
2023-02-11T15:26:10.244Z,31.79
2023-02-11T15:28:36.994Z,33.82
2023-02-11T15:31:03.863Z,31.88
2023-02-11T15:33:31.093Z,31.53
2023-02-11T15:35:58.712Z,31.65
2023-02-11T15:38:25.306Z,32.51
2023-02-11T15:40:51.969Z,33.72
2023-02-11T15:43:19.538Z,33.43
2023-02-11T15:45:48.944Z,32.58
2023-02-11T15:48:15.725Z,32.49
2023-02-11T15:50:42.343Z,31.86
2023-02-11T15:53:08.958Z,32.98
2023-02-11T15:55:35.590Z,33.88
2023-02-11T15:58:01.966Z,33.63
2023-02-11T16:00:29.012Z,34.06
2023-02-11T16:02:55.481Z,38.17
2023-02-11T16:05:22.186Z,41.43
2023-02-11T16:07:48.844Z,41.47
2023-02-11T16:10:15.269Z,43.93
2023-02-11T16:12:42.188Z,42.08
2023-02-11T16:15:08.617Z,41.22
2023-02-11T16:17:35.402Z,36.50
2023-02-11T16:20:02.173Z,35.52
2023-02-11T16:22:29.647Z,36.64
2023-02-11T16:24:56.101Z,39.23
2023-02-11T16:27:22.845Z,38.52
2023-02-11T16:29:49.279Z,36.08
2023-02-11T16:32:15.711Z,34.60
2023-02-11T16:34:42.124Z,40.67
2023-02-11T16:37:09.524Z,37.51
2023-02-11T16:39:37.089Z,35.37
2023-02-11T16:42:05.765Z,35.89
2023-02-11T16:44:33.555Z,34.26
2023-02-11T16:47:00.042Z,34.72
2023-02-11T16:49:26.514Z,33.81
2023-02-11T16:51:53.101Z,33.92
2023-02-11T16:54:19.722Z,37.47
2023-02-11T16:56:46.164Z,55.70
2023-02-11T16:59:12.934Z,47.46
2023-02-11T17:01:39.597Z,33.11
2023-02-11T17:04:06.398Z,32.06
2023-02-11T17:06:32.918Z,32.71
2023-02-11T17:08:59.366Z,34.23
2023-02-11T17:11:25.766Z,32.09
2023-02-11T17:13:52.175Z,31.99
2023-02-11T17:16:20.265Z,32.20
2023-02-11T17:18:46.663Z,34.95
2023-02-11T17:21:13.458Z,35.39
2023-02-11T17:23:39.913Z,30.13
2023-02-11T17:26:06.358Z,28.99
2023-02-11T17:28:32.973Z,28.50
2023-02-11T17:30:59.411Z,28.03
2023-02-11T17:33:25.869Z,28.65
2023-02-11T17:35:52.570Z,28.52
2023-02-11T17:38:19.149Z,27.79
2023-02-11T17:40:45.592Z,31.41
2023-02-11T17:43:13.053Z,30.24
2023-02-11T17:45:40.616Z,31.63
2023-02-11T17:48:09.173Z,30.49
2023-02-11T17:50:35.759Z,31.10
2023-02-11T17:53:02.226Z,29.98
2023-02-11T17:55:28.646Z,29.59
2023-02-11T17:57:55.539Z,31.90
2023-02-11T18:00:22.135Z,29.92
2023-02-11T18:02:50.739Z,29.11
2023-02-11T18:05:18.357Z,27.38
2023-02-11T18:07:45.948Z,27.79
2023-02-11T18:10:19.236Z,26.78
2023-02-11T18:12:46.160Z,26.22
2023-02-11T18:15:12.754Z,27.57
2023-02-11T18:17:39.345Z,29.54
2023-02-11T18:20:05.925Z,29.04
2023-02-11T18:22:34.541Z,29.18
2023-02-11T18:25:00.956Z,26.52
2023-02-11T18:27:27.469Z,28.57
2023-02-11T18:29:53.921Z,24.87
2023-02-11T18:32:20.343Z,22.95
2023-02-11T18:34:46.772Z,25.03
2023-02-11T18:37:14.113Z,27.58
2023-02-11T18:39:40.699Z,27.91
2023-02-11T18:42:08.336Z,32.31
2023-02-11T18:44:34.727Z,36.69
2023-02-11T18:47:01.527Z,32.20
2023-02-11T18:49:29.088Z,29.91
2023-02-11T18:51:55.718Z,27.14
2023-02-11T18:54:24.322Z,21.77
2023-02-11T18:56:51.943Z,18.95
2023-02-11T18:59:18.547Z,18.33
2023-02-11T19:01:45.331Z,18.33
2023-02-11T19:04:12.794Z,17.85
2023-02-11T19:06:39.532Z,17.99
2023-02-11T19:09:06.132Z,22.62
2023-02-11T19:11:32.532Z,23.86
2023-02-11T19:13:58.937Z,24.94
2023-02-11T19:16:25.397Z,26.21
2023-02-11T19:18:52.513Z,29.59
2023-02-11T19:21:19.127Z,37.29
2023-02-11T19:23:46.755Z,32.86
2023-02-11T19:26:14.405Z,29.01
2023-02-11T19:28:42.010Z,29.33
2023-02-11T19:31:08.570Z,31.21
2023-02-11T19:33:35.229Z,30.94
2023-02-11T19:36:01.845Z,43.69
2023-02-11T19:38:29.431Z,29.47
2023-02-11T19:40:58.231Z,27.93
2023-02-11T19:43:25.627Z,36.85
2023-02-11T19:45:52.215Z,32.45
2023-02-11T19:48:18.880Z,26.93
2023-02-11T19:50:45.293Z,22.44
2023-02-11T19:53:12.020Z,20.09
2023-02-11T19:55:38.459Z,20.34
2023-02-11T19:58:05.239Z,19.60
2023-02-11T20:00:31.826Z,20.08
2023-02-11T20:02:58.531Z,20.49
2023-02-11T20:05:26.021Z,23.21
2023-02-11T20:07:52.638Z,23.02
2023-02-11T20:10:19.239Z,22.90
2023-02-11T20:12:46.845Z,29.65
2023-02-11T20:15:13.464Z,26.60
2023-02-11T20:17:39.885Z,23.51
2023-02-11T20:20:06.328Z,25.09
2023-02-11T20:22:33.515Z,21.57
2023-02-11T20:25:00.973Z,20.05
2023-02-11T20:27:27.775Z,18.40
2023-02-11T20:29:55.182Z,19.22
2023-02-11T20:32:22.037Z,22.00
2023-02-11T20:34:48.548Z,20.18
2023-02-11T20:37:14.944Z,19.56
2023-02-11T20:39:41.396Z,19.59
2023-02-11T20:42:07.822Z,18.23
2023-02-11T20:44:34.286Z,18.16
2023-02-11T20:47:01.002Z,17.83
2023-02-11T20:49:27.609Z,17.70
2023-02-11T20:51:54.461Z,18.52
2023-02-11T20:54:20.983Z,20.13
2023-02-11T20:56:48.614Z,20.87
2023-02-11T20:59:16.058Z,21.58
2023-02-11T21:01:42.814Z,22.25
2023-02-11T21:04:10.238Z,21.10
2023-02-11T21:06:37.873Z,22.34
2023-02-11T21:09:05.472Z,21.87
2023-02-11T21:11:32.101Z,23.55
2023-02-11T21:13:58.575Z,23.99
2023-02-11T21:16:25.039Z,24.19
2023-02-11T21:18:51.528Z,25.79
2023-02-11T21:21:17.965Z,25.30
2023-02-11T21:23:44.434Z,27.60
2023-02-11T21:26:10.835Z,32.04
2023-02-11T21:28:40.464Z,27.92
2023-02-11T21:31:07.506Z,28.85
2023-02-11T21:33:35.675Z,27.80
2023-02-11T21:36:02.260Z,27.76
2023-02-11T21:38:28.662Z,28.09
2023-02-11T21:40:55.106Z,27.51
2023-02-11T21:43:21.532Z,26.68
2023-02-11T21:45:48.795Z,28.25
2023-02-11T21:48:15.252Z,28.66
2023-02-11T21:50:42.130Z,30.09
2023-02-11T21:53:08.711Z,30.47
2023-02-11T21:55:35.313Z,30.04
2023-02-11T21:58:02.905Z,30.50
2023-02-11T22:00:29.423Z,30.91
2023-02-11T22:02:55.849Z,31.36
2023-02-11T22:05:22.297Z,31.67
2023-02-11T22:07:49.408Z,31.00
2023-02-11T22:10:16.087Z,31.47
2023-02-11T22:12:42.757Z,31.48
2023-02-11T22:15:09.450Z,31.83
2023-02-11T22:17:37.100Z,30.75
2023-02-11T22:20:04.682Z,30.34
2023-02-11T22:22:32.276Z,31.37
2023-02-11T22:24:59.862Z,32.15
2023-02-11T22:27:28.561Z,31.02
2023-02-11T22:29:56.067Z,30.46
2023-02-11T22:32:23.025Z,31.46
2023-02-11T22:34:53.217Z,29.17
2023-02-11T22:37:23.016Z,28.43
2023-02-11T22:39:49.992Z,28.68
2023-02-11T22:42:17.562Z,30.67
2023-02-11T22:44:45.186Z,30.56
2023-02-11T22:47:12.106Z,31.40
2023-02-11T22:49:41.082Z,31.88
2023-02-11T22:52:09.362Z,32.04
2023-02-11T22:54:36.971Z,33.43
2023-02-11T22:57:04.627Z,36.51
2023-02-11T22:59:32.274Z,32.65
2023-02-11T23:02:00.027Z,34.53
2023-02-11T23:04:27.534Z,33.62
2023-02-11T23:06:54.254Z,32.82
2023-02-11T23:09:21.838Z,32.08
2023-02-11T23:11:50.583Z,30.31
2023-02-11T23:14:18.089Z,28.94
2023-02-11T23:16:44.814Z,28.33
2023-02-11T23:19:12.433Z,27.74
2023-02-11T23:21:40.038Z,27.46
2023-02-11T23:24:07.647Z,26.74
2023-02-11T23:26:34.477Z,27.37
2023-02-11T23:29:02.024Z,27.46
2023-02-11T23:31:28.897Z,26.72
2023-02-11T23:33:57.277Z,26.91
2023-02-11T23:36:26.146Z,29.43
2023-02-11T23:38:53.496Z,31.47
2023-02-11T23:41:22.085Z,29.50
2023-02-11T23:43:50.771Z,28.27
2023-02-11T23:46:18.383Z,27.96
2023-02-11T23:48:47.592Z,27.34
2023-02-11T23:51:14.505Z,27.68
2023-02-11T23:53:43.093Z,28.27
2023-02-11T23:56:09.715Z,28.69
2023-02-11T23:58:38.381Z,29.60
